createdAt,value
2018-05-02T00:02:05.134Z,50.60
2018-05-02T00:04:32.671Z,50.60
2018-05-02T00:07:00.227Z,50.60
2018-05-02T00:09:27.758Z,50.60
2018-05-02T00:11:55.309Z,50.60
2018-05-02T00:14:23.607Z,50.60
2018-05-02T00:16:51.164Z,50.60
2018-05-02T00:19:18.699Z,50.70
2018-05-02T00:21:47.017Z,50.70
2018-05-02T00:24:14.550Z,50.70
2018-05-02T00:26:42.099Z,50.70
2018-05-02T00:29:10.395Z,50.70
2018-05-02T00:31:37.965Z,50.60
2018-05-02T00:34:05.524Z,50.70
2018-05-02T00:36:33.074Z,50.70
2018-05-02T00:39:00.603Z,50.80
2018-05-02T00:41:28.929Z,51.50
2018-05-02T00:43:56.458Z,50.70
2018-05-02T00:46:24.775Z,50.90
2018-05-02T00:49:04.283Z,50.80
2018-05-02T00:51:31.882Z,50.70
2018-05-02T00:53:59.413Z,50.80
2018-05-02T00:56:26.950Z,50.80
2018-05-02T00:58:55.275Z,50.80
2018-05-02T01:01:22.808Z,50.80
2018-05-02T01:03:50.366Z,50.80
2018-05-02T01:06:17.902Z,50.80
2018-05-02T01:08:46.218Z,50.90
2018-05-02T01:11:13.760Z,50.80
2018-05-02T01:13:41.313Z,50.70
2018-05-02T01:16:09.606Z,50.70
2018-05-02T01:18:37.158Z,50.60
2018-05-02T01:21:04.690Z,50.60
2018-05-02T01:23:32.235Z,50.60
2018-05-02T01:26:00.535Z,50.50
2018-05-02T01:28:28.851Z,50.50
2018-05-02T01:30:56.392Z,51.10
2018-05-02T01:33:23.945Z,50.50
2018-05-02T01:35:51.480Z,50.40
2018-05-02T01:38:19.042Z,50.40
2018-05-02T01:40:46.586Z,50.40
2018-05-02T01:43:15.669Z,50.20
2018-05-02T01:45:43.207Z,50.20
2018-05-02T01:48:10.853Z,50.20
2018-05-02T01:50:38.391Z,50.20
2018-05-02T01:53:06.709Z,50.10
2018-05-02T01:55:34.242Z,50.10
2018-05-02T01:58:01.789Z,50.20
2018-05-02T02:00:30.080Z,50.20
2018-05-02T02:02:57.631Z,50.20
2018-05-02T02:05:25.927Z,50.00
2018-05-02T02:07:53.486Z,50.00
2018-05-02T02:10:21.017Z,50.00
2018-05-02T02:12:49.329Z,50.10
2018-05-02T02:15:16.858Z,50.00
2018-05-02T02:17:45.175Z,50.00
2018-05-02T02:20:12.710Z,50.00
2018-05-02T02:22:40.258Z,50.00
2018-05-02T02:25:08.559Z,50.10
2018-05-02T02:27:36.128Z,50.10
2018-05-02T02:30:03.658Z,50.20
2018-05-02T02:32:31.977Z,50.30
2018-05-02T02:34:59.513Z,50.20
2018-05-02T02:37:27.072Z,50.40
2018-05-02T02:39:54.601Z,50.40
2018-05-02T02:42:22.913Z,50.40
2018-05-02T02:44:50.453Z,50.40
2018-05-02T02:47:18.774Z,50.60
2018-05-02T02:49:46.301Z,50.50
2018-05-02T02:52:13.870Z,50.60
2018-05-02T02:54:41.406Z,50.60
2018-05-02T02:57:09.704Z,50.70
2018-05-02T02:59:37.254Z,50.70
2018-05-02T03:02:04.786Z,50.80
2018-05-02T03:04:32.346Z,50.70
2018-05-02T03:06:59.872Z,51.00
2018-05-02T03:09:27.431Z,50.90
2018-05-02T03:11:54.964Z,51.00
2018-05-02T03:14:22.514Z,51.10
2018-05-02T03:16:50.042Z,51.20
2018-05-02T03:19:17.587Z,51.20
2018-05-02T03:21:45.125Z,51.20
2018-05-02T03:24:12.686Z,51.30
2018-05-02T03:26:40.207Z,51.30
2018-05-02T03:29:08.521Z,51.40
2018-05-02T03:31:36.046Z,51.40
2018-05-02T03:34:03.598Z,51.40
2018-05-02T03:36:31.896Z,51.40
2018-05-02T03:38:59.451Z,51.40
2018-05-02T03:41:26.986Z,51.40
2018-05-02T03:43:55.405Z,51.40
2018-05-02T03:46:22.930Z,51.40
2018-05-02T03:48:50.503Z,51.40
2018-05-02T03:51:18.034Z,51.50
2018-05-02T03:53:45.589Z,51.50
2018-05-02T03:56:14.729Z,51.50
2018-05-02T03:58:42.283Z,51.50
2018-05-02T04:01:21.794Z,51.50
2018-05-02T04:07:15.381Z,51.50
2018-05-02T04:09:43.713Z,51.60
2018-05-02T04:12:12.073Z,51.60
2018-05-02T04:14:39.627Z,51.60
2018-05-02T04:17:07.157Z,51.70
2018-05-02T04:19:34.713Z,51.70
2018-05-02T04:22:02.250Z,51.70
2018-05-02T04:24:29.802Z,51.70
2018-05-02T04:26:57.329Z,51.70
2018-05-02T04:29:24.886Z,51.70
2018-05-02T04:31:52.420Z,51.80
2018-05-02T04:34:20.737Z,51.90
2018-05-02T04:36:48.269Z,51.80
2018-05-02T04:39:16.591Z,51.90
2018-05-02T04:41:44.126Z,51.90
2018-05-02T04:44:11.678Z,51.90
2018-05-02T04:46:39.211Z,52.00
2018-05-02T04:49:06.768Z,52.00
2018-05-02T04:51:34.294Z,52.00
2018-05-02T04:54:01.848Z,52.10
2018-05-02T04:56:29.381Z,52.00
2018-05-02T04:58:56.939Z,52.10
2018-05-02T05:01:24.471Z,52.10
2018-05-02T05:03:52.794Z,52.90
2018-05-02T05:06:20.328Z,52.10
2018-05-02T05:08:47.891Z,52.20
2018-05-02T05:11:16.187Z,52.30
2018-05-02T05:13:43.743Z,52.30
2018-05-02T05:16:11.276Z,52.30
2018-05-02T05:18:39.617Z,52.40
2018-05-02T05:21:07.151Z,52.40
2018-05-02T05:23:34.683Z,52.50
2018-05-02T05:26:03.036Z,52.50
2018-05-02T05:28:30.561Z,52.50
2018-05-02T05:30:58.109Z,52.50
2018-05-02T05:33:25.647Z,52.50
2018-05-02T05:35:53.206Z,52.50
2018-05-02T05:38:20.750Z,52.40
2018-05-02T05:40:49.042Z,52.50
2018-05-02T05:43:16.603Z,52.50
2018-05-02T05:45:44.145Z,52.40
2018-05-02T05:48:12.477Z,52.50
2018-05-02T05:50:40.014Z,52.40
2018-05-02T05:53:07.570Z,52.50
2018-05-02T05:55:35.149Z,52.50
2018-05-02T05:58:02.687Z,52.60
2018-05-02T06:00:30.245Z,52.60
2018-05-02T06:02:57.781Z,52.60
2018-05-02T06:05:26.104Z,52.80
2018-05-02T06:07:53.643Z,52.80
2018-05-02T06:10:21.222Z,52.80
2018-05-02T06:12:48.840Z,52.80
2018-05-02T06:15:16.340Z,52.80
2018-05-02T06:17:43.870Z,52.80
2018-05-02T06:20:12.196Z,52.90
2018-05-02T06:22:39.734Z,52.90
2018-05-02T06:25:07.295Z,52.90
2018-05-02T06:27:34.837Z,53.00
2018-05-02T06:30:02.403Z,53.00
2018-05-02T06:32:29.941Z,53.00
2018-05-02T06:34:58.270Z,53.60
2018-05-02T06:37:25.807Z,53.00
2018-05-02T06:39:53.371Z,53.10
2018-05-02T06:42:20.899Z,53.10
2018-05-02T06:44:49.309Z,53.10
2018-05-02T06:47:16.846Z,53.10
2018-05-02T06:49:44.406Z,53.10
2018-05-02T06:52:12.705Z,53.30
2018-05-02T06:54:40.282Z,53.20
2018-05-02T06:57:07.826Z,53.70
2018-05-02T06:59:35.354Z,53.30
2018-05-02T07:02:03.681Z,53.40
2018-05-02T07:04:31.242Z,53.30
2018-05-02T07:06:58.772Z,53.40
2018-05-02T07:09:26.310Z,53.40
2018-05-02T07:11:54.627Z,53.40
2018-05-02T07:14:22.162Z,53.40
2018-05-02T07:16:49.724Z,53.40
2018-05-02T07:19:17.267Z,53.40
2018-05-02T07:21:45.597Z,53.50
2018-05-02T07:24:13.128Z,53.50
2018-05-02T07:26:40.687Z,53.40
2018-05-02T07:29:08.225Z,53.50
2018-05-02T07:31:36.549Z,53.70
2018-05-02T07:34:04.097Z,53.60
2018-05-02T07:36:31.658Z,53.60
2018-05-02T07:38:59.190Z,53.50
2018-05-02T07:41:26.757Z,53.80
2018-05-02T07:43:54.288Z,53.70
2018-05-02T07:46:22.611Z,53.90
2018-05-02T07:48:50.147Z,53.70
2018-05-02T07:51:17.718Z,53.80
2018-05-02T07:53:45.260Z,53.80
2018-05-02T07:56:13.589Z,54.00
2018-05-02T07:58:41.135Z,53.90
2018-05-02T08:01:08.694Z,54.10
2018-05-02T08:03:36.249Z,54.00
2018-05-02T08:06:04.455Z,54.10
2018-05-02T08:08:33.498Z,54.10
2018-05-02T08:11:01.146Z,54.10
2018-05-02T08:13:28.617Z,54.10
2018-05-02T08:15:56.174Z,54.20
2018-05-02T08:18:23.763Z,54.20
2018-05-02T08:20:51.323Z,54.20
2018-05-02T08:23:18.858Z,54.80
2018-05-02T08:25:46.416Z,54.10
2018-05-02T08:28:13.952Z,54.10
2018-05-02T08:30:42.270Z,54.40
2018-05-02T08:33:09.811Z,54.10
2018-05-02T08:35:37.381Z,54.20
2018-05-02T08:38:05.777Z,54.20
2018-05-02T08:40:33.370Z,54.20
2018-05-02T08:43:01.173Z,54.20
2018-05-02T08:45:28.739Z,54.40
2018-05-02T08:47:56.274Z,54.40
2018-05-02T08:50:23.829Z,54.40
2018-05-02T08:52:51.371Z,55.20
2018-05-02T08:55:18.926Z,54.40
2018-05-02T08:57:46.459Z,54.40
2018-05-02T09:00:14.016Z,54.30
2018-05-02T09:02:42.317Z,54.30
2018-05-02T09:05:09.872Z,54.30
2018-05-02T09:07:37.401Z,54.20
2018-05-02T09:10:04.956Z,54.30
2018-05-02T09:12:32.487Z,54.20
2018-05-02T09:15:00.016Z,54.20
2018-05-02T09:17:27.579Z,54.60
2018-05-02T09:19:55.106Z,54.30
2018-05-02T09:22:22.660Z,54.40
2018-05-02T09:24:50.197Z,54.30
2018-05-02T09:27:18.511Z,54.30
2018-05-02T09:29:46.045Z,54.30
2018-05-02T09:32:13.615Z,54.20
2018-05-02T09:34:41.170Z,55.40
2018-05-02T09:37:08.717Z,55.50
2018-05-02T09:39:37.019Z,55.10
2018-05-02T09:42:04.575Z,55.10
2018-05-02T09:44:32.111Z,54.60
2018-05-02T09:47:00.431Z,53.80
2018-05-02T09:49:27.967Z,53.70
2018-05-02T09:51:55.535Z,53.60
2018-05-02T09:54:23.074Z,53.90
2018-05-02T09:56:51.401Z,53.90
2018-05-02T09:59:18.934Z,53.90
2018-05-02T10:01:46.486Z,53.70
2018-05-02T10:04:14.024Z,53.50
2018-05-02T10:06:42.346Z,53.30
2018-05-02T10:09:09.899Z,53.30
2018-05-02T10:11:37.457Z,53.10
2018-05-02T10:14:04.995Z,53.30
2018-05-02T10:16:32.546Z,53.40
2018-05-02T10:19:00.854Z,53.50
2018-05-02T10:21:28.410Z,53.50
2018-05-02T10:23:55.942Z,53.80
2018-05-02T10:26:24.300Z,54.10
2018-05-02T10:28:51.831Z,54.00
2018-05-02T10:31:19.380Z,54.10
2018-05-02T10:33:46.914Z,54.20
2018-05-02T10:36:14.470Z,54.40
2018-05-02T10:38:42.003Z,54.60
2018-05-02T10:41:10.330Z,54.60
2018-05-02T10:43:37.865Z,54.50
2018-05-02T10:46:05.415Z,54.60
2018-05-02T10:48:33.711Z,54.70
2018-05-02T10:51:01.271Z,54.70
2018-05-02T10:53:28.810Z,54.70
2018-05-02T10:55:57.142Z,54.90
2018-05-02T10:58:24.682Z,54.80
2018-05-02T11:00:52.237Z,55.00
2018-05-02T11:03:19.765Z,55.00
2018-05-02T11:05:48.082Z,55.10
2018-05-02T11:08:15.616Z,55.00
2018-05-02T11:10:43.150Z,55.00
2018-05-02T11:13:10.707Z,55.00
2018-05-02T11:15:38.239Z,55.80
2018-05-02T11:18:05.824Z,55.00
2018-05-02T11:20:33.352Z,55.10
2018-05-02T11:23:00.915Z,55.10
2018-05-02T11:25:28.452Z,55.10
2018-05-02T11:27:56.000Z,55.80
2018-05-02T11:30:23.535Z,55.10
2018-05-02T11:32:51.862Z,55.20
2018-05-02T11:35:19.402Z,55.20
2018-05-02T11:37:46.966Z,55.10
2018-05-02T11:40:14.504Z,55.20
2018-05-02T11:42:42.915Z,55.20
2018-05-02T11:45:10.454Z,55.20
2018-05-02T11:47:38.018Z,55.20
2018-05-02T11:50:05.561Z,55.20
2018-05-02T11:52:33.940Z,55.20
2018-05-02T11:55:02.217Z,55.20
2018-05-02T11:57:30.545Z,55.10
2018-05-02T11:59:58.071Z,55.10
2018-05-02T12:02:25.622Z,55.10
2018-05-02T12:04:53.151Z,55.00
2018-05-02T12:07:20.714Z,54.70
2018-05-02T12:09:48.247Z,54.30
2018-05-02T12:12:15.807Z,53.80
2018-05-02T12:14:43.347Z,53.70
2018-05-02T12:17:10.907Z,53.30
2018-05-02T12:19:38.443Z,53.10
2018-05-02T12:22:05.998Z,53.10
2018-05-02T12:24:33.535Z,53.20
2018-05-02T12:27:01.099Z,53.30
2018-05-02T12:29:29.538Z,53.40
2018-05-02T12:31:57.099Z,53.40
2018-05-02T12:34:24.629Z,53.60
2018-05-02T12:36:52.240Z,53.70
2018-05-02T12:39:19.754Z,53.80
2018-05-02T12:41:47.315Z,54.10
2018-05-02T12:44:14.847Z,54.30
2018-05-02T12:46:43.236Z,54.50
2018-05-02T12:49:10.721Z,54.50
2018-05-02T12:51:38.273Z,54.60
2018-05-02T12:54:05.822Z,54.50
2018-05-02T12:56:33.355Z,54.70
2018-05-02T12:59:01.730Z,55.00
2018-05-02T13:01:29.341Z,54.90
2018-05-02T13:03:56.902Z,55.00
2018-05-02T13:06:24.435Z,55.10
2018-05-02T13:08:51.995Z,55.00
2018-05-02T13:11:20.305Z,55.10
2018-05-02T13:13:47.868Z,55.00
2018-05-02T13:16:15.407Z,55.00
2018-05-02T13:18:42.963Z,55.10
2018-05-02T13:21:10.507Z,55.00
2018-05-02T13:23:38.829Z,55.20
2018-05-02T13:26:06.376Z,55.20
2018-05-02T13:28:33.931Z,55.20
2018-05-02T13:31:01.476Z,55.30
2018-05-02T13:33:29.042Z,55.30
2018-05-02T13:35:56.593Z,55.40
2018-05-02T13:38:24.954Z,55.50
2018-05-02T13:40:53.646Z,55.50
2018-05-02T13:43:21.219Z,55.50
2018-05-02T13:45:48.758Z,55.50
2018-05-02T13:48:17.123Z,55.80
2018-05-02T13:50:44.659Z,55.50
2018-05-02T13:53:12.225Z,55.40
2018-05-02T13:55:39.759Z,55.40
2018-05-02T13:58:07.324Z,55.50
2018-05-02T14:00:34.930Z,55.50
2018-05-02T14:03:02.470Z,55.50
2018-05-02T14:05:30.001Z,55.60
2018-05-02T14:07:57.564Z,55.60
2018-05-02T14:10:25.103Z,55.70
2018-05-02T14:12:52.889Z,55.70
2018-05-02T14:15:20.436Z,55.90
2018-05-02T14:17:47.999Z,54.70
2018-05-02T14:20:16.324Z,50.80
2018-05-02T14:22:43.914Z,50.60
2018-05-02T14:25:12.219Z,49.70
2018-05-02T14:27:39.780Z,49.70
2018-05-02T14:30:07.316Z,49.50
2018-05-02T14:32:34.870Z,49.40
2018-05-02T14:35:02.420Z,49.30
2018-05-02T14:37:30.759Z,49.30
2018-05-02T14:39:58.286Z,49.30
2018-05-02T14:42:25.855Z,49.30
2018-05-02T14:44:53.389Z,49.30
2018-05-02T14:47:21.717Z,49.40
2018-05-02T14:49:49.246Z,49.30
2018-05-02T14:52:16.782Z,49.30
2018-05-02T14:54:45.108Z,49.30
2018-05-02T14:57:12.655Z,49.30
2018-05-02T14:59:40.212Z,49.30
2018-05-02T15:02:07.848Z,49.30
2018-05-02T15:04:35.322Z,49.20
2018-05-02T15:07:02.862Z,49.40
2018-05-02T15:09:31.187Z,49.30
2018-05-02T15:11:58.721Z,49.30
2018-05-02T15:14:26.289Z,49.30
2018-05-02T15:16:53.826Z,49.30
2018-05-02T15:19:21.382Z,49.40
2018-05-02T15:21:49.691Z,49.50
2018-05-02T15:24:17.252Z,49.60
2018-05-02T15:26:44.787Z,49.50
2018-05-02T15:29:12.345Z,49.60
2018-05-02T15:31:39.876Z,49.60
2018-05-02T15:34:07.435Z,49.70
2018-05-02T15:36:34.966Z,49.40
2018-05-02T15:39:02.534Z,49.90
2018-05-02T15:41:30.067Z,49.90
2018-05-02T15:43:57.693Z,50.00
2018-05-02T15:46:25.998Z,49.90
2018-05-02T15:48:53.555Z,49.90
2018-05-02T15:51:21.081Z,50.00
2018-05-02T15:53:49.410Z,50.70
2018-05-02T15:56:16.941Z,50.10
2018-05-02T15:58:44.488Z,50.10
2018-05-02T16:01:12.787Z,50.20
2018-05-02T16:03:40.332Z,50.10
2018-05-02T16:06:07.872Z,50.20
2018-05-02T16:08:36.198Z,50.80
2018-05-02T16:11:03.729Z,50.20
2018-05-02T16:13:32.049Z,50.20
2018-05-02T16:15:59.583Z,50.20
2018-05-02T16:18:27.136Z,50.20
2018-05-02T16:20:54.728Z,50.20
2018-05-02T16:23:22.292Z,50.20
2018-05-02T16:25:49.835Z,50.30
2018-05-02T16:28:17.398Z,50.30
2018-05-02T16:30:44.942Z,50.30
2018-05-02T16:33:12.568Z,50.40
2018-05-02T16:35:40.049Z,50.40
2018-05-02T16:38:07.616Z,50.40
2018-05-02T16:40:35.167Z,50.50
2018-05-02T16:43:03.497Z,50.50
2018-05-02T16:45:31.042Z,50.50
2018-05-02T16:47:58.603Z,50.50
2018-05-02T16:50:26.139Z,50.50
2018-05-02T16:52:53.672Z,50.50
2018-05-02T16:55:21.990Z,50.60
2018-05-02T16:57:49.551Z,50.60
2018-05-02T17:00:17.103Z,50.60
2018-05-02T17:02:44.641Z,50.50
2018-05-02T17:05:12.957Z,50.60
2018-05-02T17:07:40.489Z,50.60
2018-05-02T17:10:08.047Z,50.60
2018-05-02T17:12:35.583Z,50.60
2018-05-02T17:15:03.913Z,50.90
2018-05-02T17:17:31.454Z,50.60
2018-05-02T17:19:59.008Z,50.50
2018-05-02T17:22:26.555Z,50.50
2018-05-02T17:24:54.886Z,50.60
2018-05-02T17:27:23.198Z,50.60
2018-05-02T17:29:51.536Z,50.60
2018-05-02T17:32:19.076Z,50.60
2018-05-02T17:34:46.645Z,50.60
2018-05-02T17:37:14.185Z,50.80
2018-05-02T17:39:41.740Z,50.80
2018-05-02T17:42:09.285Z,50.80
2018-05-02T17:44:37.601Z,50.80
2018-05-02T17:47:05.134Z,50.80
2018-05-02T17:49:32.690Z,50.80
2018-05-02T17:52:00.991Z,50.90
2018-05-02T17:54:28.552Z,50.90
2018-05-02T17:56:56.082Z,50.90
2018-05-02T17:59:24.405Z,50.90
2018-05-02T18:01:51.941Z,50.90
2018-05-02T18:04:19.497Z,50.90
2018-05-02T18:06:47.028Z,50.90
2018-05-02T18:09:15.349Z,51.10
2018-05-02T18:11:42.878Z,51.10
2018-05-02T18:14:11.205Z,51.10
2018-05-02T18:16:38.733Z,51.10
2018-05-02T18:19:06.290Z,51.10
2018-05-02T18:21:34.002Z,51.20
2018-05-02T18:24:02.371Z,51.30
2018-05-02T18:26:29.914Z,51.30
2018-05-02T18:28:57.487Z,51.40
2018-05-02T18:31:25.024Z,51.30
2018-05-02T18:33:52.578Z,51.40
2018-05-02T18:36:20.182Z,51.30
2018-05-02T18:38:47.699Z,51.40
2018-05-02T18:41:15.229Z,51.40
2018-05-02T18:43:43.553Z,51.40
2018-05-02T18:46:11.085Z,51.50
2018-05-02T18:48:38.621Z,51.50
2018-05-02T18:51:06.948Z,51.60
2018-05-02T18:53:34.477Z,51.60
2018-05-02T18:56:02.034Z,51.60
2018-05-02T18:58:30.408Z,51.70
2018-05-02T19:00:57.907Z,51.70
2018-05-02T19:03:25.443Z,51.70
2018-05-02T19:05:52.993Z,51.80
2018-05-02T19:08:21.291Z,51.90
2018-05-02T19:10:48.858Z,51.90
2018-05-02T19:13:16.407Z,51.90
2018-05-02T19:15:43.969Z,51.90
2018-05-02T19:18:17.109Z,51.90
2018-05-02T19:20:44.672Z,52.00
2018-05-02T19:23:12.214Z,52.10
2018-05-02T19:25:55.609Z,52.00
2018-05-02T19:28:23.149Z,52.10
2018-05-02T19:30:57.309Z,52.10
2018-05-02T19:33:30.631Z,52.20
2018-05-02T19:35:58.189Z,52.20
2018-05-02T19:38:25.722Z,52.20
2018-05-02T19:40:58.991Z,52.30
2018-05-02T19:43:32.161Z,52.40
2018-05-02T19:46:00.481Z,52.50
2018-05-02T19:48:28.012Z,52.50
2018-05-02T19:51:01.179Z,52.60
2018-05-02T19:53:29.482Z,52.70
2018-05-02T19:55:57.038Z,52.70
2018-05-02T19:58:24.570Z,52.80
2018-05-02T20:00:57.847Z,52.80
2018-05-02T20:03:25.381Z,53.30
2018-05-02T20:05:52.941Z,52.70
2018-05-02T20:08:26.162Z,52.80
2018-05-02T20:10:59.547Z,52.80
2018-05-02T20:13:32.805Z,52.80
2018-05-02T20:16:00.363Z,52.90
2018-05-02T20:18:27.895Z,52.90
2018-05-02T20:20:56.222Z,52.90
2018-05-02T20:23:23.754Z,52.90
2018-05-02T20:25:51.315Z,53.00
2018-05-02T20:28:18.871Z,53.00
2018-05-02T20:30:46.437Z,53.00
2018-05-02T20:33:13.977Z,53.10
2018-05-02T20:35:42.300Z,53.10
2018-05-02T20:38:09.843Z,53.10
2018-05-02T20:40:37.402Z,53.10
2018-05-02T20:43:04.925Z,53.20
2018-05-02T20:45:32.478Z,53.10
2018-05-02T20:48:00.014Z,53.20
2018-05-02T20:50:27.574Z,53.20
2018-05-02T20:52:55.106Z,53.20
2018-05-02T20:55:22.751Z,53.30
2018-05-02T20:57:50.231Z,53.30
2018-05-02T21:00:17.762Z,53.30
2018-05-02T21:02:46.082Z,53.30
2018-05-02T21:05:13.610Z,53.30
2018-05-02T21:07:41.165Z,53.30
2018-05-02T21:10:09.485Z,53.40
2018-05-02T21:12:37.047Z,53.40
2018-05-02T21:15:04.601Z,53.40
2018-05-02T21:17:32.164Z,53.40
2018-05-02T21:19:59.699Z,53.50
2018-05-02T21:22:27.251Z,53.50
2018-05-02T21:24:54.779Z,53.60
2018-05-02T21:27:23.103Z,53.90
2018-05-02T21:29:50.634Z,53.60
2018-05-02T21:32:18.959Z,53.70
2018-05-02T21:34:46.492Z,53.70
2018-05-02T21:37:14.059Z,53.70
2018-05-02T21:39:41.588Z,53.70
2018-05-02T21:42:09.913Z,53.80
2018-05-02T21:44:37.446Z,53.80
2018-05-02T21:47:04.999Z,53.90
2018-05-02T21:49:32.543Z,53.90
2018-05-02T21:52:00.870Z,53.90
2018-05-02T21:54:28.399Z,53.90
2018-05-02T21:56:55.954Z,53.90
2018-05-02T21:59:23.497Z,54.00
2018-05-02T22:01:51.830Z,54.00
2018-05-02T22:04:19.365Z,54.00
2018-05-02T22:06:46.927Z,54.10
2018-05-02T22:09:14.461Z,54.10
2018-05-02T22:11:42.790Z,54.10
2018-05-02T22:14:10.334Z,54.10
2018-05-02T22:16:37.996Z,54.10
2018-05-02T22:19:05.531Z,54.20
2018-05-02T22:21:33.090Z,54.30
2018-05-02T22:24:00.629Z,54.20
2018-05-02T22:26:28.949Z,54.40
2018-05-02T22:28:56.486Z,54.30
2018-05-02T22:31:24.049Z,54.30
2018-05-02T22:33:51.584Z,54.40
2018-05-02T22:36:19.906Z,54.60
2018-05-02T22:38:47.448Z,54.50
2018-05-02T22:41:15.007Z,54.60
2018-05-02T22:43:42.543Z,54.60
2018-05-02T22:46:10.110Z,54.60
2018-05-02T22:48:38.469Z,54.80
2018-05-02T22:51:05.990Z,54.70
2018-05-02T22:53:33.526Z,54.70
2018-05-02T22:56:01.089Z,54.80
2018-05-02T22:58:28.626Z,54.80
2018-05-02T23:00:56.926Z,54.90
2018-05-02T23:03:24.492Z,54.90
2018-05-02T23:05:52.031Z,54.90
2018-05-02T23:08:20.358Z,55.00
2018-05-02T23:10:47.891Z,54.80
2018-05-02T23:13:15.446Z,54.90
2018-05-02T23:15:42.985Z,55.00
2018-05-02T23:18:11.302Z,55.10
2018-05-02T23:20:38.826Z,55.10
2018-05-02T23:23:07.152Z,55.20
2018-05-02T23:25:34.688Z,55.20
2018-05-02T23:28:02.243Z,55.20
2018-05-02T23:30:29.778Z,55.30
2018-05-02T23:32:58.099Z,55.40
2018-05-02T23:35:25.631Z,55.30
2018-05-02T23:37:53.194Z,55.40
2018-05-02T23:40:20.722Z,55.40
2018-05-02T23:42:48.273Z,55.30
2018-05-02T23:45:17.306Z,55.40
2018-05-02T23:47:44.870Z,55.40
2018-05-02T23:50:12.409Z,55.50
2018-05-02T23:52:40.729Z,55.50
2018-05-02T23:55:08.262Z,55.40
2018-05-02T23:57:35.825Z,55.50
